Time;durP1;ratioP1;P1;durP2;ratioP2;P2;SDS_P1;SDS_P2;PMS_P1;PMS_P2;Temp;Humidity;BMP_temperature;BMP_pressure;BME280_temperature;BME280_humidity;BME280_pressure;Samples;Min_cycle;Max_cycle;Signal;HPM_P1;HPM_P2
2021/05/09 00:01:05;;;;;;;;;;;;;;;;;;4301912;33;20004;-83
2021/05/09 00:03:36;;;;;;;;;;;;;;;;;;4296941;33;19996;-83
2021/05/09 00:06:03;;;;;;;;;;;;;;;;;;4290559;33;20012;-84
2021/05/09 00:08:34;;;;;;;;;;;;;;;;;;4305329;33;20071;-84
2021/05/09 00:11:05;;;;;;;;;;;;;;;;;;4307430;33;20003;-84
2021/05/09 00:13:33;;;;;;;;;;;;;;;;;;4305863;33;20003;-85
2021/05/09 00:16:03;;;;;;;;;;;;;;;;;;4301754;33;19976;-83
2021/05/09 00:18:34;;;;;;;;;;;;;;;;;;4301143;33;20048;-84
2021/05/09 00:21:04;;;;;;;;;;;;;;;;;;4310771;33;20035;-84
2021/05/09 00:23:34;;;;;;;;;;;;;;;;;;4301922;33;20132;-84
2021/05/09 00:26:06;;;;;;;;;;;;;;;;;;4308856;33;20016;-84
2021/05/09 00:28:37;;;;;;;;;;;;;;;;;;4304214;33;19964;-85
2021/05/09 00:31:07;;;;;;;;;;;;;;;;;;4303473;33;20306;-84
2021/05/09 00:33:38;;;;;;;;;;;;;;;;;;4301129;33;19961;-84
2021/05/09 00:36:12;;;;;;;;;;;;;;;;;;4299516;33;19956;-84
2021/05/09 00:38:42;;;;;;;;;;;;;;;;;;4304989;33;19957;-84
2021/05/09 00:41:12;;;;;;;;;;;;;;;;;;4302653;33;20004;-84
2021/05/09 00:43:40;;;;;;;;;;;;;;;;;;4298744;33;20106;-85
2021/05/09 00:46:10;;;;;;;;;;;;;;;;;;4303932;33;20079;-84
2021/05/09 00:48:41;;;;;;;;;;;;;;;;;;4296752;33;20466;-84
2021/05/09 00:51:12;;;;;;;;;;;;;;;;;;4296022;33;20028;-83
2021/05/09 00:53:42;;;;;;;;;;;;;;;;;;4303302;33;20507;-84
2021/05/09 00:56:13;;;;;;;;;;;;;;;;;;4307396;33;20023;-83
2021/05/09 00:58:43;;;;;;;;;;;;;;;;;;4296730;33;20063;-85
2021/05/09 01:01:13;;;;;;;;;;;;;;;;;;4302282;33;19967;-84
2021/05/09 01:03:43;;;;;;;;;;;;;;;;;;4290165;33;19976;-84
2021/05/09 01:06:14;;;;;;;;;;;;;;;;;;4291614;33;21256;-84
2021/05/09 01:08:43;;;;;;;;;;;;;;;;;;4284533;33;19987;-85
2021/05/09 01:11:13;;;;;;;;;;;;;;;;;;4285882;33;20516;-85
2021/05/09 01:13:44;;;;;;;;;;;;;;;;;;4296394;33;20019;-84
2021/05/09 01:16:15;;;;;;;;;;;;;;;;;;4294284;33;20377;-85
2021/05/09 01:18:45;;;;;;;;;;;;;;;;;;4295954;33;20537;-84
2021/05/09 01:21:15;;;;;;;;;;;;;;;;;;4300091;33;20495;-85
2021/05/09 01:23:45;;;;;;;;;;;;;;;;;;4294605;33;21865;-84
2021/05/09 01:26:15;;;;;;;;;;;;;;;;;;4298760;33;19971;-84
2021/05/09 01:28:45;;;;;;;;;;;;;;;;;;4299713;33;20016;-84
2021/05/09 01:31:16;;;;;;;;;;;;;;;;;;4301608;33;19960;-84
2021/05/09 01:33:47;;;;;;;;;;;;;;;;;;4298761;33;20042;-84
2021/05/09 01:36:18;;;;;;;;;;;;;;;;;;4298118;33;20165;-85
2021/05/09 01:38:49;;;;;;;;;;;;;;;;;;4282347;33;19996;-84
2021/05/09 01:41:19;;;;;;;;;;;;;;;;;;4301046;33;20015;-84
2021/05/09 01:43:49;;;;;;;;;;;;;;;;;;4293429;33;20005;-84
2021/05/09 01:46:20;;;;;;;;;;;;;;;;;;4296683;33;20383;-85
2021/05/09 01:48:48;;;;;;;;;;;;;;;;;;4296263;33;20609;-84
2021/05/09 01:51:19;;;;;;;;;;;;;;;;;;4295755;33;20391;-85
2021/05/09 01:53:49;;;;;;;;;;;;;;;;;;4301031;33;20043;-84
2021/05/09 01:56:17;;;;;;;;;;;;;;;;;;4296343;33;20394;-85
2021/05/09 01:58:47;;;;;;;;;;;;;;;;;;4296643;33;20004;-84
2021/05/09 02:01:17;;;;;;;;;;;;;;;;;;4299123;33;20032;-84
2021/05/09 02:03:48;;;;;;;;;;;;;;;;;;4297725;33;20019;-84
2021/05/09 02:06:18;;;;;;;;;;;;;;;;;;4299577;33;19968;-84
2021/05/09 02:08:49;;;;;;;;;;;;;;;;;;4298603;33;20003;-84
2021/05/09 02:11:19;;;;;;;;;;;;;;;;;;4299613;33;20031;-85
2021/05/09 02:13:49;;;;;;;;;;;;;;;;;;4294417;33;20031;-83
2021/05/09 02:16:19;;;;;;;;;;;;;;;;;;4301097;33;19968;-83
2021/05/09 02:18:50;;;;;;;;;;;;;;;;;;4309345;33;21864;-83
2021/05/09 02:21:20;;;;;;;;;;;;;;;;;;4295247;33;20114;-85
2021/05/09 02:23:51;;;;;;;;;;;;;;;;;;4291269;33;21775;-85
2021/05/09 02:26:20;;;;;;;;;;;;;;;;;;4303495;33;19960;-84
2021/05/09 02:28:51;;;;;;;;;;;;;;;;;;4299232;33;20090;-84
2021/05/09 02:31:22;;;;;;;;;;;;;;;;;;4311261;33;20050;-84
2021/05/09 02:33:52;;;;;;;;;;;;;;;;;;4311211;33;19967;-83
2021/05/09 02:36:23;;;;;;;;;;;;;;;;;;4309491;33;19975;-84
2021/05/09 02:38:53;;;;;;;;;;;;;;;;;;4301798;33;19991;-86
2021/05/09 02:41:33;;;;;;;;;;;;;;;;;;4300391;33;20385;-84
2021/05/09 02:44:08;;;;;;;;;;;;;;;;;;4301920;33;20029;-85
2021/05/09 02:46:44;;;;;;;;;;;;;;;;;;4295701;33;19999;-84
2021/05/09 02:49:14;;;;;;;;;;;;;;;;;;4304781;33;20068;-85
2021/05/09 02:51:42;;;;;;;;;;;;;;;;;;4306574;33;20061;-85
2021/05/09 02:54:12;;;;;;;;;;;;;;;;;;4306380;33;20407;-84
2021/05/09 02:56:42;;;;;;;;;;;;;;;;;;4304113;33;20076;-84
2021/05/09 02:59:21;;;;;;;;;;;;;;;;;;4306204;33;19956;-84
2021/05/09 03:01:51;;;;;;;;;;;;;;;;;;4277453;33;19999;-85
2021/05/09 03:04:34;;;;;;;;;;;;;;;;;;4312231;33;19995;-84
2021/05/09 03:07:15;;;;;;;;;;;;;;;;;;4310390;33;20031;-84
2021/05/09 03:09:46;;;;;;;;;;;;;;;;;;4292388;33;19987;-84
2021/05/09 03:12:19;;;;;;;;;;;;;;;;;;4358284;27;19969;-94
2021/05/09 03:15:04;;;;;;;;;;;;;;;;;;4290583;33;19982;-95
2021/05/09 03:18:17;;;;;;;;;;;;;;;;;;4293072;33;19984;-96
2021/05/09 03:20:53;;;;;;;;;;;;;;;;;;4303090;33;19967;-95
2021/05/09 03:23:36;;;;;;;;;;;;;;;;;;4279175;33;19974;-94
2021/05/09 03:26:13;;;;;;;;;;;;;;;;;;4278364;33;19956;-92
2021/05/09 03:29:26;;;;;;;;;;;;;;;;;;4271063;33;20326;-95
2021/05/09 03:35:32;;;;;;;;;;;;;;;;;;4286883;33;20341;-94
2021/05/09 03:38:43;;;;;;;;;;;;;;;;;;4285375;33;19976;-95
2021/05/09 03:41:34;;;;;;;;;;;;;;;;;;4282927;33;20352;-94
2021/05/09 03:44:25;;;;;;;;;;;;;;;;;;4289827;33;20340;-95
2021/05/09 03:47:06;;;;;;;;;;;;;;;;;;4306122;33;19984;-94
2021/05/09 03:53:13;;;;;;;;;;;;;;;;;;4272745;33;19984;-93
2021/05/09 03:55:49;;;;;;;;;;;;;;;;;;4292444;33;19972;-94
2021/05/09 03:58:19;;;;;;;;;;;;;;;;;;4300317;33;20255;-95
2021/05/09 04:00:56;;;;;;;;;;;;;;;;;;4281476;33;19952;-95
2021/05/09 04:03:38;;;;;;;;;;;;;;;;;;4299509;33;20376;-95
2021/05/09 04:06:24;;;;;;;;;;;;;;;;;;4293145;33;20363;-95
2021/05/09 04:08:52;;;;;;;;;;;;;;;;;;4296882;33;19979;-94
2021/05/09 04:11:41;;;;;;;;;;;;;;;;;;4266957;33;20008;-94
2021/05/09 04:14:10;;;;;;;;;;;;;;;;;;4301764;33;19965;-93
2021/05/09 04:16:37;;;;;;;;;;;;;;;;;;4300021;33;20034;-95
2021/05/09 04:19:18;;;;;;;;;;;;;;;;;;4296788;33;19969;-93
2021/05/09 04:21:47;;;;;;;;;;;;;;;;;;4301801;33;20380;-93
2021/05/09 04:24:15;;;;;;;;;;;;;;;;;;4300480;33;19961;-94
2021/05/09 04:26:56;;;;;;;;;;;;;;;;;;4303704;33;20358;-94
2021/05/09 04:29:31;;;;;;;;;;;;;;;;;;4301006;33;19972;-95
2021/05/09 04:32:07;;;;;;;;;;;;;;;;;;4308967;33;20026;-94
2021/05/09 04:34:49;;;;;;;;;;;;;;;;;;4287634;33;19987;-94
2021/05/09 04:37:17;;;;;;;;;;;;;;;;;;4304279;33;19992;-94
2021/05/09 04:40:16;;;;;;;;;;;;;;;;;;4300051;33;19953;-94
2021/05/09 04:42:46;;;;;;;;;;;;;;;;;;4282289;33;19968;-94
2021/05/09 04:45:26;;;;;;;;;;;;;;;;;;4299688;33;19952;-95
2021/05/09 04:48:02;;;;;;;;;;;;;;;;;;4296356;33;19957;-95
2021/05/09 04:50:35;;;;;;;;;;;;;;;;;;4299613;33;19986;-94
2021/05/09 04:53:06;;;;;;;;;;;;;;;;;;4307478;33;20413;-93
2021/05/09 04:55:38;;;;;;;;;;;;;;;;;;4269538;33;20012;-95
2021/05/09 04:58:11;;;;;;;;;;;;;;;;;;4293247;33;19969;-94
2021/05/09 05:00:47;;;;;;;;;;;;;;;;;;4288896;33;19977;-93
2021/05/09 05:03:23;;;;;;;;;;;;;;;;;;4294592;33;20034;-94
2021/05/09 05:05:56;;;;;;;;;;;;;;;;;;4288858;33;20000;-95
2021/05/09 05:08:50;;;;;;;;;;;;;;;;;;4295219;33;19984;-96
2021/05/09 05:11:52;;;;;;;;;;;;;;;;;;4272475;33;19946;-96
2021/05/09 05:14:49;;;;;;;;;;;;;;;;;;4266520;33;20032;-96
2021/05/09 05:17:55;;;;;;;;;;;;;;;;;;4269929;33;19993;-96
2021/05/09 05:21:05;;;;;;;;;;;;;;;;;;4278155;33;19969;-96
2021/05/09 05:24:08;;;;;;;;;;;;;;;;;;4282720;33;20275;-96
2021/05/09 05:27:34;;;;;;;;;;;;;;;;;;4266144;33;19993;-96
2021/05/09 05:33:33;;;;;;;;;;;;;;;;;;4274097;33;19975;-96
2021/05/09 05:39:23;;;;;;;;;;;;;;;;;;4271049;33;20012;-96
2021/05/09 05:42:13;;;;;;;;;;;;;;;;;;4299043;33;19997;-96
2021/05/09 05:45:05;;;;;;;;;;;;;;;;;;4287356;33;19975;-96
2021/05/09 05:47:58;;;;;;;;;;;;;;;;;;4289776;33;19972;-96
2021/05/09 05:51:04;;;;;;;;;;;;;;;;;;4285328;33;19972;-96
2021/05/09 05:53:55;;;;;;;;;;;;;;;;;;4272612;33;19957;-96
2021/05/09 06:00:00;;;;;;;;;;;;;;;;;;4289722;33;19965;-96
2021/05/09 06:02:37;;;;;;;;;;;;;;;;;;4286550;33;20477;-96
2021/05/09 06:05:16;;;;;;;;;;;;;;;;;;4294221;33;20013;-96
2021/05/09 06:07:47;;;;;;;;;;;;;;;;;;4285774;33;19965;-96
2021/05/09 06:10:31;;;;;;;;;;;;;;;;;;4282523;33;20003;-96
2021/05/09 06:13:22;;;;;;;;;;;;;;;;;;4292475;33;19961;-96
2021/05/09 06:16:44;;;;;;;;;;;;;;;;;;4274865;33;19969;-96
2021/05/09 06:20:29;;;;;;;;;;;;;;;;;;4211801;34;20506;-96
2021/05/09 06:31:09;;;;;;;;;;;;;;;;;;4219316;34;20015;-96
2021/05/09 06:34:42;;;;;;;;;;;;;;;;;;;;;
2021/05/09 06:41:40;;;;;;;;;;;;;;;;;;4222290;34;19994;-96
2021/05/09 06:58:12;;;;;;;;;;;;;;;;;;4295725;33;19977;-84
2021/05/09 07:00:42;;;;;;;;;;;;;;;;;;4301573;33;19980;-82
2021/05/09 07:03:10;;;;;;;;;;;;;;;;;;4303464;33;19955;-84
2021/05/09 07:05:44;;;;;;;;;;;;;;;;;;4300181;33;20016;-84
2021/05/09 07:08:13;;;;;;;;;;;;;;;;;;4296433;33;20288;-84
2021/05/09 07:10:44;;;;;;;;;;;;;;;;;;4293376;33;19969;-83
2021/05/09 07:13:14;;;;;;;;;;;;;;;;;;4308728;33;19956;-83
2021/05/09 07:15:47;;;;;;;;;;;;;;;;;;4299331;33;19983;-84
2021/05/09 07:18:22;;;;;;;;;;;;;;;;;;4303070;33;20015;-84
2021/05/09 07:20:55;;;;;;;;;;;;;;;;;;4306688;33;20078;-84
2021/05/09 07:23:27;;;;;;;;;;;;;;;;;;4309648;33;19960;-84
2021/05/09 07:25:58;;;;;;;;;;;;;;;;;;4302081;33;20004;-84
2021/05/09 07:28:27;;;;;;;;;;;;;;;;;;4297372;33;20031;-84
2021/05/09 07:31:00;;;;;;;;;;;;;;;;;;4301970;33;19969;-83
2021/05/09 07:33:30;;;;;;;;;;;;;;;;;;4309337;33;19961;-83
2021/05/09 07:36:01;;;;;;;;;;;;;;;;;;4293429;33;20015;-84
2021/05/09 07:38:34;;;;;;;;;;;;;;;;;;4301975;33;20084;-83
2021/05/09 07:41:05;;;;;;;;;;;;;;;;;;4303741;33;20031;-84
2021/05/09 07:43:35;;;;;;;;;;;;;;;;;;4305224;33;20083;-85
2021/05/09 07:46:09;;;;;;;;;;;;;;;;;;4298146;33;20708;-84
2021/05/09 07:48:39;;;;;;;;;;;;;;;;;;4301029;33;20008;-84
2021/05/09 07:51:10;;;;;;;;;;;;;;;;;;4305344;33;20294;-83
2021/05/09 07:53:40;;;;;;;;;;;;;;;;;;4309051;33;20091;-83
2021/05/09 07:56:08;;;;;;;;;;;;;;;;;;4296368;33;20008;-84
2021/05/09 07:58:38;;;;;;;;;;;;;;;;;;4306805;33;20382;-84
2021/05/09 08:01:08;;;;;;;;;;;;;;;;;;4307986;33;19956;-84
2021/05/09 08:03:39;;;;;;;;;;;;;;;;;;4310116;33;20019;-84
2021/05/09 08:06:07;;;;;;;;;;;;;;;;;;4301448;33;20162;-84
2021/05/09 08:08:38;;;;;;;;;;;;;;;;;;4306173;33;19952;-83
2021/05/09 08:11:09;;;;;;;;;;;;;;;;;;4304157;33;20347;-83
2021/05/09 08:13:40;;;;;;;;;;;;;;;;;;4302751;33;21339;-83
2021/05/09 08:16:08;;;;;;;;;;;;;;;;;;4294509;33;20015;-84
2021/05/09 08:18:38;;;;;;;;;;;;;;;;;;4295460;33;20026;-84
2021/05/09 08:21:08;;;;;;;;;;;;;;;;;;4301503;33;20023;-85
2021/05/09 08:23:43;;;;;;;;;;;;;;;;;;4294380;33;20016;-84
2021/05/09 08:26:14;;;;;;;;;;;;;;;;;;4294968;33;20036;-84
2021/05/09 08:28:44;;;;;;;;;;;;;;;;;;4290976;33;20365;-85
2021/05/09 08:31:16;;;;;;;;;;;;;;;;;;4297965;33;20205;-84
2021/05/09 08:33:48;;;;;;;;;;;;;;;;;;4293372;33;19999;-85
2021/05/09 08:36:16;;;;;;;;;;;;;;;;;;4293928;33;20106;-83
2021/05/09 08:38:47;;;;;;;;;;;;;;;;;;4301538;33;20060;-84
2021/05/09 08:41:16;;;;;;;;;;;;;;;;;;4304766;33;19964;-85
2021/05/09 08:43:47;;;;;;;;;;;;;;;;;;4285787;33;20398;-85
2021/05/09 08:46:15;;;;;;;;;;;;;;;;;;4295918;33;20039;-85
2021/05/09 08:48:45;;;;;;;;;;;;;;;;;;4306031;33;20027;-83
2021/05/09 08:51:15;;;;;;;;;;;;;;;;;;4295131;33;19968;-85
2021/05/09 08:53:43;;;;;;;;;;;;;;;;;;4287052;33;19952;-85
2021/05/09 08:56:14;;;;;;;;;;;;;;;;;;4295542;33;20058;-85
2021/05/09 08:58:45;;;;;;;;;;;;;;;;;;4299146;33;20003;-85
2021/05/09 09:01:14;;;;;;;;;;;;;;;;;;4285540;33;19968;-85
2021/05/09 09:03:42;;;;;;;;;;;;;;;;;;4294794;33;19979;-85
2021/05/09 09:06:17;;;;;;;;;;;;;;;;;;4301737;33;19962;-84
2021/05/09 09:08:45;;;;;;;;;;;;;;;;;;4309096;33;20049;-84
2021/05/09 09:11:16;;;;;;;;;;;;;;;;;;4306831;33;19965;-84
2021/05/09 09:13:46;;;;;;;;;;;;;;;;;;4309156;33;20043;-83
2021/05/09 09:16:17;;;;;;;;;;;;;;;;;;4305886;33;20379;-84
2021/05/09 09:18:47;;;;;;;;;;;;;;;;;;4309341;33;20680;-84
2021/05/09 09:21:17;;;;;;;;;;;;;;;;;;4310992;33;20385;-85
2021/05/09 09:23:47;;;;;;;;;;;;;;;;;;4310916;33;19972;-85
2021/05/09 09:26:15;;;;;;;;;;;;;;;;;;4307977;33;20000;-85
2021/05/09 09:28:45;;;;;;;;;;;;;;;;;;4301609;33;20035;-85
2021/05/09 09:31:16;;;;;;;;;;;;;;;;;;4306084;33;20004;-85
2021/05/09 09:33:56;;;;;;;;;;;;;;;;;;4306862;33;20349;-86
2021/05/09 09:36:30;;;;;;;;;;;;;;;;;;4303675;33;20370;-85
2021/05/09 09:39:00;;;;;;;;;;;;;;;;;;4308710;33;20387;-85
2021/05/09 09:41:30;;;;;;;;;;;;;;;;;;4302537;33;20708;-85
2021/05/09 09:44:00;;;;;;;;;;;;;;;;;;4299956;33;20051;-84
2021/05/09 09:46:33;;;;;;;;;;;;;;;;;;4306780;33;19992;-85
2021/05/09 09:49:09;;;;;;;;;;;;;;;;;;4302995;33;20027;-85
2021/05/09 09:51:40;;;;;;;;;;;;;;;;;;4305945;33;20296;-84
2021/05/09 09:54:10;;;;;;;;;;;;;;;;;;4295877;33;20008;-84
2021/05/09 09:56:38;;;;;;;;;;;;;;;;;;4309619;33;20028;-84
2021/05/09 09:59:08;;;;;;;;;;;;;;;;;;4302220;33;20297;-84
2021/05/09 10:01:39;;;;;;;;;;;;;;;;;;4298218;33;19971;-85
2021/05/09 10:04:18;;;;;;;;;;;;;;;;;;4297881;33;19965;-84
2021/05/09 10:06:49;;;;;;;;;;;;;;;;;;4303792;33;19988;-85
2021/05/09 10:09:23;;;;;;;;;;;;;;;;;;4305962;33;20035;-85
2021/05/09 10:11:56;;;;;;;;;;;;;;;;;;4301662;33;19987;-85
2021/05/09 10:14:28;;;;;;;;;;;;;;;;;;4292215;33;20055;-84
2021/05/09 10:16:58;;;;;;;;;;;;;;;;;;4300695;33;19971;-85
2021/05/09 10:19:32;;;;;;;;;;;;;;;;;;4294122;33;19964;-85
2021/05/09 10:22:02;;;;;;;;;;;;;;;;;;4299265;33;20002;-86
2021/05/09 10:24:32;;;;;;;;;;;;;;;;;;4305042;33;19961;-84
2021/05/09 10:27:06;;;;;;;;;;;;;;;;;;4309923;33;20406;-84
2021/05/09 10:29:47;;;;;;;;;;;;;;;;;;4295312;33;20002;-85
2021/05/09 10:32:21;;;;;;;;;;;;;;;;;;4302391;33;20053;-86
2021/05/09 10:34:58;;;;;;;;;;;;;;;;;;4293851;33;20035;-84
2021/05/09 10:37:28;;;;;;;;;;;;;;;;;;4279086;33;20418;-86
2021/05/09 10:40:00;;;;;;;;;;;;;;;;;;4301121;33;19971;-86
2021/05/09 10:42:30;;;;;;;;;;;;;;;;;;4300769;33;19979;-84
2021/05/09 10:45:18;;;;;;;;;;;;;;;;;;4309777;33;19999;-84
2021/05/09 10:47:48;;;;;;;;;;;;;;;;;;4316320;33;20001;-84
2021/05/09 10:50:28;;;;;;;;;;;;;;;;;;4304093;33;20014;-85
2021/05/09 10:53:02;;;;;;;;;;;;;;;;;;4278434;33;20055;-85
2021/05/09 10:55:33;;;;;;;;;;;;;;;;;;4296815;33;20023;-86
2021/05/09 10:58:03;;;;;;;;;;;;;;;;;;4298524;33;20035;-85
2021/05/09 11:00:33;;;;;;;;;;;;;;;;;;4290313;33;20060;-85
2021/05/09 11:03:03;;;;;;;;;;;;;;;;;;4302522;33;19971;-86
2021/05/09 11:05:34;;;;;;;;;;;;;;;;;;4307790;33;19991;-86
2021/05/09 11:08:05;;;;;;;;;;;;;;;;;;4305776;33;19963;-85
2021/05/09 11:10:35;;;;;;;;;;;;;;;;;;4304954;33;20013;-85
2021/05/09 11:13:27;;;;;;;;;;;;;;;;;;4302793;33;19962;-85
2021/05/09 11:15:57;;;;;;;;;;;;;;;;;;4299012;33;19956;-84
2021/05/09 11:18:27;;;;;;;;;;;;;;;;;;4298197;33;20049;-84
2021/05/09 11:20:55;;;;;;;;;;;;;;;;;;4299979;33;20361;-85
2021/05/09 11:23:27;;;;;;;;;;;;;;;;;;4307295;33;20047;-85
2021/05/09 11:25:59;;;;;;;;;;;;;;;;;;4312956;33;20437;-85
2021/05/09 11:28:28;;;;;;;;;;;;;;;;;;4317502;33;20449;-84
2021/05/09 11:30:56;;;;;;;;;;;;;;;;;;4317087;33;20343;-84
2021/05/09 11:33:27;;;;;;;;;;;;;;;;;;4315939;33;19966;-85
2021/05/09 11:35:55;;;;;;;;;;;;;;;;;;4302580;33;20007;-86
2021/05/09 11:38:26;;;;;;;;;;;;;;;;;;4307813;33;20051;-85
2021/05/09 11:40:57;;;;;;;;;;;;;;;;;;4311276;33;19999;-86
2021/05/09 11:43:28;;;;;;;;;;;;;;;;;;4320442;33;20023;-85
2021/05/09 11:45:55;;;;;;;;;;;;;;;;;;4305970;33;19975;-85
2021/05/09 11:48:25;;;;;;;;;;;;;;;;;;4306140;33;20012;-85
2021/05/09 11:50:56;;;;;;;;;;;;;;;;;;4312262;33;20353;-84
2021/05/09 11:53:26;;;;;;;;;;;;;;;;;;4306677;33;20031;-84
2021/05/09 11:55:54;;;;;;;;;;;;;;;;;;4296937;33;20075;-85
2021/05/09 11:58:26;;;;;;;;;;;;;;;;;;4294087;33;20402;-84
2021/05/09 12:00:57;;;;;;;;;;;;;;;;;;4313275;33;19953;-84
2021/05/09 12:03:42;;;;;;;;;;;;;;;;;;4294061;33;20024;-84
2021/05/09 12:06:13;;;;;;;;;;;;;;;;;;4303544;33;19978;-85
2021/05/09 12:08:46;;;;;;;;;;;;;;;;;;4309177;33;19994;-84
2021/05/09 12:11:15;;;;;;;;;;;;;;;;;;4311849;33;19983;-85
2021/05/09 12:13:46;;;;;;;;;;;;;;;;;;4305341;33;19956;-85
2021/05/09 12:16:16;;;;;;;;;;;;;;;;;;4303166;33;20019;-84
2021/05/09 12:18:52;;;;;;;;;;;;;;;;;;4300291;33;20721;-85
2021/05/09 12:21:22;;;;;;;;;;;;;;;;;;4311782;33;19979;-85
2021/05/09 12:23:53;;;;;;;;;;;;;;;;;;4308929;33;20359;-84
2021/05/09 12:26:22;;;;;;;;;;;;;;;;;;4306665;33;19964;-84
2021/05/09 12:28:53;;;;;;;;;;;;;;;;;;4315470;33;19995;-85
2021/05/09 12:31:23;;;;;;;;;;;;;;;;;;4304933;33;20000;-85
2021/05/09 12:33:54;;;;;;;;;;;;;;;;;;4301905;33;19964;-85
2021/05/09 12:36:23;;;;;;;;;;;;;;;;;;4304907;33;20005;-84
2021/05/09 12:38:54;;;;;;;;;;;;;;;;;;4317479;33;19952;-84
2021/05/09 12:41:27;;;;;;;;;;;;;;;;;;4304542;33;19998;-85
2021/05/09 12:43:58;;;;;;;;;;;;;;;;;;4316928;33;20397;-84
2021/05/09 12:46:27;;;;;;;;;;;;;;;;;;4323581;33;20173;-85
2021/05/09 12:48:58;;;;;;;;;;;;;;;;;;4308374;33;20000;-84
2021/05/09 12:51:25;;;;;;;;;;;;;;;;;;4310259;33;20458;-84
2021/05/09 12:53:56;;;;;;;;;;;;;;;;;;4315676;33;19971;-84
2021/05/09 12:56:27;;;;;;;;;;;;;;;;;;4312866;33;19957;-85
2021/05/09 12:58:58;;;;;;;;;;;;;;;;;;4315984;33;20017;-83
2021/05/09 13:01:28;;;;;;;;;;;;;;;;;;4311286;33;20030;-84
2021/05/09 13:03:58;;;;;;;;;;;;;;;;;;4295311;33;20025;-84
2021/05/09 13:06:29;;;;;;;;;;;;;;;;;;4311714;33;20030;-83
2021/05/09 13:08:59;;;;;;;;;;;;;;;;;;4313831;33;19994;-83
2021/05/09 13:11:30;;;;;;;;;;;;;;;;;;4312696;33;19996;-84
2021/05/09 13:14:00;;;;;;;;;;;;;;;;;;4303397;33;19952;-83
2021/05/09 13:16:30;;;;;;;;;;;;;;;;;;4315119;33;19953;-83
2021/05/09 13:19:00;;;;;;;;;;;;;;;;;;4319931;33;19966;-84
2021/05/09 13:21:30;;;;;;;;;;;;;;;;;;4312134;33;20428;-84
2021/05/09 13:24:00;;;;;;;;;;;;;;;;;;4308427;33;20046;-84
2021/05/09 13:26:31;;;;;;;;;;;;;;;;;;4322105;33;19971;-83
2021/05/09 13:29:01;;;;;;;;;;;;;;;;;;4301500;33;20064;-84
2021/05/09 13:31:29;;;;;;;;;;;;;;;;;;4314687;33;20407;-84
2021/05/09 13:33:59;;;;;;;;;;;;;;;;;;4290339;33;19991;-84
2021/05/09 13:36:30;;;;;;;;;;;;;;;;;;4296480;33;19965;-83
2021/05/09 13:39:00;;;;;;;;;;;;;;;;;;4302084;33;20034;-84
2021/05/09 13:41:30;;;;;;;;;;;;;;;;;;4317263;33;19968;-84
2021/05/09 13:44:01;;;;;;;;;;;;;;;;;;4319889;33;19956;-84
2021/05/09 13:46:31;;;;;;;;;;;;;;;;;;4316336;33;19995;-84
2021/05/09 13:49:01;;;;;;;;;;;;;;;;;;4314561;33;19967;-84
2021/05/09 13:51:31;;;;;;;;;;;;;;;;;;4290864;33;20247;-83
2021/05/09 13:54:02;;;;;;;;;;;;;;;;;;4304866;33;20007;-84
2021/05/09 13:56:32;;;;;;;;;;;;;;;;;;4306126;33;19952;-84
2021/05/09 13:59:03;;;;;;;;;;;;;;;;;;4311872;33;19964;-84
2021/05/09 14:01:33;;;;;;;;;;;;;;;;;;4317863;33;20369;-83
2021/05/09 14:04:04;;;;;;;;;;;;;;;;;;4321010;33;19952;-84
2021/05/09 14:06:34;;;;;;;;;;;;;;;;;;4312253;33;19983;-83
2021/05/09 14:09:04;;;;;;;;;;;;;;;;;;4317935;33;20383;-84
2021/05/09 14:11:34;;;;;;;;;;;;;;;;;;4309519;33;20059;-84
2021/05/09 14:14:06;;;;;;;;;;;;;;;;;;4308261;33;19963;-84
2021/05/09 14:16:36;;;;;;;;;;;;;;;;;;4320679;33;19960;-83
2021/05/09 14:19:06;;;;;;;;;;;;;;;;;;4320774;33;20000;-85
2021/05/09 14:21:38;;;;;;;;;;;;;;;;;;4313434;33;20008;-83
2021/05/09 14:24:06;;;;;;;;;;;;;;;;;;4318019;33;20330;-84
2021/05/09 14:26:36;;;;;;;;;;;;;;;;;;4325778;33;19948;-84
2021/05/09 14:29:03;;;;;;;;;;;;;;;;;;4315541;33;19988;-84
2021/05/09 14:31:34;;;;;;;;;;;;;;;;;;4311510;33;20405;-84
2021/05/09 14:34:03;;;;;;;;;;;;;;;;;;4312855;33;19952;-84
2021/05/09 14:36:34;;;;;;;;;;;;;;;;;;4312204;33;20594;-84
2021/05/09 14:39:02;;;;;;;;;;;;;;;;;;4318133;33;19948;-84
2021/05/09 14:41:32;;;;;;;;;;;;;;;;;;4311553;33;19963;-84
2021/05/09 14:44:02;;;;;;;;;;;;;;;;;;4319360;33;19956;-85
2021/05/09 14:46:32;;;;;;;;;;;;;;;;;;4316111;33;20685;-84
2021/05/09 14:49:02;;;;;;;;;;;;;;;;;;4306507;33;19995;-84
2021/05/09 14:51:32;;;;;;;;;;;;;;;;;;4311593;33;20564;-84
2021/05/09 14:54:03;;;;;;;;;;;;;;;;;;4320550;33;20039;-84
2021/05/09 14:56:33;;;;;;;;;;;;;;;;;;4311107;33;20697;-83
2021/05/09 14:59:03;;;;;;;;;;;;;;;;;;4322527;33;19999;-84
2021/05/09 15:01:33;;;;;;;;;;;;;;;;;;4302344;33;19981;-84
2021/05/09 15:04:04;;;;;;;;;;;;;;;;;;4322540;33;20636;-84
2021/05/09 15:06:32;;;;;;;;;;;;;;;;;;4312169;33;19957;-84
2021/05/09 15:09:02;;;;;;;;;;;;;;;;;;4325687;33;19984;-84
2021/05/09 15:11:33;;;;;;;;;;;;;;;;;;4304363;33;20011;-84
2021/05/09 15:14:03;;;;;;;;;;;;;;;;;;4299055;33;19983;-84
2021/05/09 15:16:33;;;;;;;;;;;;;;;;;;4308443;33;20396;-84
2021/05/09 15:19:03;;;;;;;;;;;;;;;;;;4309268;33;19953;-84
2021/05/09 15:21:34;;;;;;;;;;;;;;;;;;4313178;33;20385;-84
2021/05/09 15:24:04;;;;;;;;;;;;;;;;;;4311826;33;20273;-84
2021/05/09 15:26:34;;;;;;;;;;;;;;;;;;4310813;33;19960;-83
2021/05/09 15:29:04;;;;;;;;;;;;;;;;;;4310555;33;20005;-84
2021/05/09 15:31:35;;;;;;;;;;;;;;;;;;4316469;33;20350;-85
2021/05/09 15:34:05;;;;;;;;;;;;;;;;;;4314601;33;20835;-83
2021/05/09 15:36:35;;;;;;;;;;;;;;;;;;4312154;33;20069;-83
2021/05/09 15:39:05;;;;;;;;;;;;;;;;;;4312590;33;19967;-83
2021/05/09 15:41:36;;;;;;;;;;;;;;;;;;4312929;33;20011;-84
2021/05/09 15:44:06;;;;;;;;;;;;;;;;;;4320658;33;20028;-84
2021/05/09 15:46:37;;;;;;;;;;;;;;;;;;4321336;33;19956;-84
2021/05/09 15:49:07;;;;;;;;;;;;;;;;;;4313453;33;19956;-84
2021/05/09 15:51:38;;;;;;;;;;;;;;;;;;4316633;33;19995;-84
2021/05/09 15:54:09;;;;;;;;;;;;;;;;;;4323456;33;20402;-84
2021/05/09 15:56:39;;;;;;;;;;;;;;;;;;4314813;33;20367;-84
2021/05/09 15:59:09;;;;;;;;;;;;;;;;;;4317064;33;19978;-85
2021/05/09 16:01:39;;;;;;;;;;;;;;;;;;4318340;33;19968;-84
2021/05/09 16:04:10;;;;;;;;;;;;;;;;;;4317589;33;20007;-84
2021/05/09 16:06:40;;;;;;;;;;;;;;;;;;4314588;33;19953;-84
2021/05/09 16:09:11;;;;;;;;;;;;;;;;;;4314167;33;20023;-83
2021/05/09 16:11:41;;;;;;;;;;;;;;;;;;4316593;33;20582;-84
2021/05/09 16:14:11;;;;;;;;;;;;;;;;;;4310552;33;19990;-83
2021/05/09 16:16:41;;;;;;;;;;;;;;;;;;4309224;33;19978;-83
2021/05/09 16:19:12;;;;;;;;;;;;;;;;;;4311743;33;20384;-83
2021/05/09 16:21:44;;;;;;;;;;;;;;;;;;4318839;33;20026;-83
2021/05/09 16:24:14;;;;;;;;;;;;;;;;;;4310214;33;20057;-82
2021/05/09 16:26:44;;;;;;;;;;;;;;;;;;4308608;33;19964;-83
2021/05/09 16:29:14;;;;;;;;;;;;;;;;;;4323412;33;19956;-84
2021/05/09 16:31:44;;;;;;;;;;;;;;;;;;4313065;33;19998;-84
2021/05/09 16:34:15;;;;;;;;;;;;;;;;;;4313115;33;20326;-83
2021/05/09 16:36:45;;;;;;;;;;;;;;;;;;4303640;33;19976;-83
2021/05/09 16:39:15;;;;;;;;;;;;;;;;;;4312378;33;19971;-83
2021/05/09 16:41:45;;;;;;;;;;;;;;;;;;4312220;33;20497;-84
2021/05/09 16:44:16;;;;;;;;;;;;;;;;;;4318729;33;19956;-82
2021/05/09 16:46:45;;;;;;;;;;;;;;;;;;4316045;33;19989;-84
2021/05/09 16:49:16;;;;;;;;;;;;;;;;;;4320513;33;19957;-83
2021/05/09 16:51:44;;;;;;;;;;;;;;;;;;4315270;33;20024;-84
2021/05/09 16:54:24;;;;;;;;;;;;;;;;;;4321278;33;19967;-83
2021/05/09 16:56:55;;;;;;;;;;;;;;;;;;4311869;33;19968;-83
2021/05/09 16:59:25;;;;;;;;;;;;;;;;;;4316249;33;19949;-83
2021/05/09 17:01:56;;;;;;;;;;;;;;;;;;4312193;33;19964;-83
2021/05/09 17:04:26;;;;;;;;;;;;;;;;;;4309709;33;19970;-83
2021/05/09 17:06:54;;;;;;;;;;;;;;;;;;4317351;33;20495;-83
2021/05/09 17:09:24;;;;;;;;;;;;;;;;;;4314645;33;19964;-83
2021/05/09 17:12:00;;;;;;;;;;;;;;;;;;4312291;33;19971;-83
2021/05/09 17:14:30;;;;;;;;;;;;;;;;;;4311595;33;20008;-84
2021/05/09 17:17:00;;;;;;;;;;;;;;;;;;4302652;33;20002;-84
2021/05/09 17:19:30;;;;;;;;;;;;;;;;;;4310577;33;19971;-83
2021/05/09 17:22:00;;;;;;;;;;;;;;;;;;4310797;33;20016;-83
2021/05/09 17:24:31;;;;;;;;;;;;;;;;;;4298159;33;19953;-84
2021/05/09 17:26:58;;;;;;;;;;;;;;;;;;4311214;33;20371;-84
2021/05/09 17:29:29;;;;;;;;;;;;;;;;;;4316999;33;19963;-84
2021/05/09 17:32:00;;;;;;;;;;;;;;;;;;4319899;33;19960;-83
2021/05/09 17:34:28;;;;;;;;;;;;;;;;;;4312921;33;19970;-83
2021/05/09 17:36:58;;;;;;;;;;;;;;;;;;4309354;33;20027;-83
2021/05/09 17:39:27;;;;;;;;;;;;;;;;;;4322201;33;20333;-83
2021/05/09 17:41:57;;;;;;;;;;;;;;;;;;4310929;33;19964;-83
2021/05/09 17:44:28;;;;;;;;;;;;;;;;;;4316842;33;20004;-83
2021/05/09 17:46:58;;;;;;;;;;;;;;;;;;4316122;33;19965;-83
2021/05/09 17:49:28;;;;;;;;;;;;;;;;;;4311299;33;20006;-83
2021/05/09 17:51:58;;;;;;;;;;;;;;;;;;4318163;33;20449;-83
2021/05/09 17:54:28;;;;;;;;;;;;;;;;;;4307445;33;20014;-83
2021/05/09 17:56:59;;;;;;;;;;;;;;;;;;4319054;33;19967;-84
2021/05/09 17:59:34;;;;;;;;;;;;;;;;;;4317774;33;20323;-83
2021/05/09 18:02:04;;;;;;;;;;;;;;;;;;4318188;33;19956;-83
2021/05/09 18:04:35;;;;;;;;;;;;;;;;;;4318816;33;19967;-83
2021/05/09 18:07:05;;;;;;;;;;;;;;;;;;4312098;33;20462;-83
2021/05/09 18:09:38;;;;;;;;;;;;;;;;;;4315402;33;19967;-83